עמוד ראשי
METAR-TAF:

METAR-TAF

שדות תעופה :

Beaver Creek, יוקון, קנדה

קו רוחב: 62-25N, קו אורך: 140-52W, גובה: 649מטר

תצפית מזג אוויר נוכחית

הדו"ח נערך לפני 8 שעות ו 10דקות, בשעה 21:00 UTC
רוח 5קשר מכיוון מזרח עם משבים עד 21קשר , משתנה בין מזרח/צפון-מזרח ו דרום-מזרח
טמפרטורת 23 צלסיוס
לחות 27%
לחץ 1013 hPa
ראות: 48.3קילומטר
עננים פזורים בגובה 5000רגל
עננים בינוניים בגובה 8000רגל
עננים בינוניים בגובה 24000רגל

METAR: CYXQ 242100Z 09005G21KT 060V130 30SM SCT050 BKN080 BKN240 23/03 A2990 RMK CU3AC2CI2 /FU/ SLP139 DENSITY ALT 3600FT

זמן: 22:10 (05:10 UTC)


TAF: חסר

תצפיות ותחזיות מזג אוויר לגבי יותר מ- 4,000 שדות תעופה ברחבי העולם. דוחות METAR ו- TAF.

התחנות הזמינות מסומנות בנקודות צהובות ואדומות על גבי המפה.

העבר את העכבר לנקודה הצבעונית על מנת לראות את שם התחנה.

לאחר מכן, לחץ כדי לראות את תוכן ואת תחזיות מזג האוויר.

כדי לשנות את המפה: לחץ על הכפתורים הירוקים עם הפלוס השחור כדי להתקרב; על הכפתור הירוק עם המקף כדי להתרחק; או בחיצים הירוקים למפות סמוכות.


METAR-TAF: